createdAt,value
2018-11-28T00:01:48.736Z,22.80
2018-11-28T00:04:16.093Z,23.83
2018-11-28T00:06:43.482Z,23.57
2018-11-28T00:09:10.840Z,25.00
2018-11-28T00:11:38.215Z,23.57
2018-11-28T00:14:05.716Z,24.20
2018-11-28T00:16:33.213Z,23.37
2018-11-28T00:19:00.559Z,23.10
2018-11-28T00:21:27.922Z,22.93
2018-11-28T00:23:55.359Z,22.67
2018-11-28T00:26:22.765Z,23.67
2018-11-28T00:28:50.170Z,23.43
2018-11-28T00:31:17.527Z,24.53
2018-11-28T00:33:44.973Z,24.43
2018-11-28T00:36:12.371Z,27.53
2018-11-28T00:38:39.767Z,23.20
2018-11-28T00:41:07.208Z,24.00
2018-11-28T00:43:34.604Z,24.47
2018-11-28T00:46:02.047Z,20.90
2018-11-28T00:48:29.376Z,25.47
2018-11-28T00:50:56.726Z,23.83
2018-11-28T00:53:24.385Z,23.67
2018-11-28T00:55:51.808Z,23.00
2018-11-28T00:58:19.173Z,24.20
2018-11-28T01:00:46.674Z,21.60
2018-11-28T01:03:14.023Z,25.43
2018-11-28T01:05:41.364Z,24.30
2018-11-28T01:08:08.813Z,26.53
2018-11-28T01:10:36.298Z,23.50
2018-11-28T01:13:03.747Z,24.60
2018-11-28T01:15:31.161Z,24.40
2018-11-28T01:17:58.534Z,24.40
2018-11-28T01:20:25.993Z,24.10
2018-11-28T01:22:53.364Z,24.80
2018-11-28T01:25:21.385Z,24.20
2018-11-28T01:27:49.280Z,24.63
2018-11-28T01:30:18.764Z,25.27
2018-11-28T01:32:46.306Z,25.97
2018-11-28T01:35:14.659Z,24.67
2018-11-28T01:37:42.319Z,26.07
2018-11-28T01:40:16.407Z,22.77
2018-11-28T01:42:43.898Z,25.47
2018-11-28T01:45:13.415Z,23.63
2018-11-28T01:47:40.920Z,23.73
2018-11-28T01:50:09.721Z,24.60
2018-11-28T01:52:37.118Z,24.37
2018-11-28T01:55:05.981Z,24.33
2018-11-28T01:57:33.351Z,24.90
2018-11-28T02:00:00.765Z,24.47
2018-11-28T02:02:28.131Z,25.00
2018-11-28T02:04:55.554Z,25.73
2018-11-28T02:07:22.984Z,23.80
2018-11-28T02:09:50.480Z,23.00
2018-11-28T02:12:17.957Z,23.63
2018-11-28T02:14:45.384Z,23.47
2018-11-28T02:17:12.723Z,24.50
2018-11-28T02:19:40.131Z,24.50
2018-11-28T02:22:07.516Z,24.20
2018-11-28T02:24:34.932Z,25.00
2018-11-28T02:27:02.377Z,26.10
2018-11-28T02:29:29.784Z,24.93
2018-11-28T02:31:57.280Z,24.33
2018-11-28T02:34:24.686Z,24.90
2018-11-28T02:36:52.232Z,25.50
2018-11-28T02:39:19.629Z,26.73
2018-11-28T02:41:47.078Z,26.30
2018-11-28T02:44:14.520Z,25.17
2018-11-28T02:46:41.925Z,24.00
2018-11-28T02:49:09.343Z,23.83
2018-11-28T02:51:37.910Z,24.90
2018-11-28T02:54:04.703Z,24.53
2018-11-28T02:56:32.110Z,24.23
2018-11-28T02:58:59.486Z,22.47
2018-11-28T03:01:26.929Z,24.40
2018-11-28T03:03:54.399Z,23.73
2018-11-28T03:06:21.964Z,23.80
2018-11-28T03:08:49.306Z,23.93
2018-11-28T03:11:16.666Z,24.10
2018-11-28T03:13:44.158Z,22.13
2018-11-28T03:16:14.056Z,24.30
2018-11-28T03:18:41.483Z,24.30
2018-11-28T03:21:08.828Z,23.10
2018-11-28T03:23:36.201Z,23.63
2018-11-28T03:26:03.663Z,22.90
2018-11-28T03:28:31.050Z,23.60
2018-11-28T03:30:58.410Z,23.00
2018-11-28T03:33:25.842Z,26.13
2018-11-28T03:35:53.208Z,23.67
2018-11-28T03:38:20.698Z,24.40
2018-11-28T03:40:48.050Z,25.27
2018-11-28T03:43:15.472Z,24.13
2018-11-28T03:45:42.881Z,26.03
2018-11-28T03:48:10.334Z,26.30
2018-11-28T03:50:37.733Z,26.47
2018-11-28T03:53:05.441Z,25.47
2018-11-28T03:55:32.844Z,25.80
2018-11-28T03:58:00.260Z,27.07
2018-11-28T04:00:27.630Z,26.30
2018-11-28T04:02:55.052Z,29.60
2018-11-28T04:05:22.486Z,27.93
2018-11-28T04:07:49.858Z,27.13
2018-11-28T04:10:17.243Z,27.10
2018-11-28T04:12:44.913Z,25.73
2018-11-28T04:15:19.568Z,26.67
2018-11-28T04:17:47.110Z,25.80
2018-11-28T04:20:15.434Z,22.20
2018-11-28T04:22:42.935Z,22.37
2018-11-28T04:25:11.075Z,22.47
2018-11-28T04:27:38.461Z,24.00
2018-11-28T04:30:09.915Z,24.23
2018-11-28T04:32:37.371Z,22.43
2018-11-28T04:35:06.029Z,21.80
2018-11-28T04:37:33.488Z,22.40
2018-11-28T04:40:00.882Z,23.80
2018-11-28T04:42:28.294Z,21.47
2018-11-28T04:44:55.701Z,23.73
2018-11-28T04:47:23.137Z,23.60
2018-11-28T04:49:50.572Z,21.30
2018-11-28T04:52:17.926Z,22.80
2018-11-28T04:54:45.360Z,19.73
2018-11-28T04:57:12.777Z,19.90
2018-11-28T04:59:40.140Z,18.40
2018-11-28T05:02:09.644Z,19.60
2018-11-28T05:04:37.049Z,17.63
2018-11-28T05:07:35.321Z,18.87
2018-11-28T05:10:03.244Z,19.40
2018-11-28T05:12:30.675Z,17.43
2018-11-28T05:14:58.072Z,17.23
2018-11-28T05:17:25.475Z,19.00
2018-11-28T05:19:52.904Z,18.50
2018-11-28T05:22:20.290Z,18.17
2018-11-28T05:24:47.666Z,17.70
2018-11-28T05:27:15.049Z,16.13
2018-11-28T05:29:43.172Z,17.93
2018-11-28T05:32:10.642Z,17.60
2018-11-28T05:34:38.014Z,19.87
2018-11-28T05:37:05.784Z,16.40
2018-11-28T05:39:33.225Z,16.20
2018-11-28T05:42:00.735Z,17.27
2018-11-28T05:44:28.398Z,16.50
2018-11-28T05:46:55.846Z,18.47
2018-11-28T05:49:23.224Z,18.53
2018-11-28T05:51:50.762Z,18.40
2018-11-28T05:54:18.119Z,16.47
2018-11-28T05:56:45.538Z,16.53
2018-11-28T05:59:12.902Z,16.00
2018-11-28T06:01:40.290Z,17.70
2018-11-28T06:04:07.713Z,19.30
2018-11-28T06:06:35.156Z,17.60
2018-11-28T06:09:07.848Z,17.80
2018-11-28T06:11:35.714Z,17.00
2018-11-28T06:14:03.116Z,17.70
2018-11-28T06:16:30.572Z,15.60
2018-11-28T06:18:57.980Z,18.30
2018-11-28T06:21:25.393Z,17.13
2018-11-28T06:23:53.236Z,19.93
2018-11-28T06:26:20.604Z,19.40
2018-11-28T06:28:47.980Z,18.20
2018-11-28T06:31:15.371Z,18.90
2018-11-28T06:33:43.174Z,18.70
2018-11-28T06:36:10.579Z,18.77
2018-11-28T06:38:37.978Z,18.67
2018-11-28T06:41:05.724Z,19.87
2018-11-28T06:43:33.092Z,18.37
2018-11-28T06:46:00.544Z,19.90
2018-11-28T06:48:29.010Z,18.30
2018-11-28T06:50:56.408Z,19.33
2018-11-28T06:53:23.782Z,19.57
2018-11-28T06:55:51.163Z,21.13
2018-11-28T06:58:18.592Z,20.27
2018-11-28T07:00:46.024Z,21.47
2018-11-28T07:03:13.471Z,19.93
2018-11-28T07:05:40.820Z,25.83
2018-11-28T07:08:08.220Z,21.67
2018-11-28T07:10:35.597Z,22.47
2018-11-28T07:13:02.952Z,20.60
2018-11-28T07:15:30.320Z,22.40
2018-11-28T07:18:09.143Z,20.10
2018-11-28T07:20:36.546Z,18.23
2018-11-28T07:23:03.902Z,18.63
2018-11-28T07:25:31.279Z,21.53
2018-11-28T07:27:58.708Z,23.40
2018-11-28T07:30:26.172Z,23.10
2018-11-28T07:32:56.626Z,23.03
2018-11-28T07:35:24.944Z,24.17
2018-11-28T07:37:52.228Z,23.03
2018-11-28T07:40:23.724Z,24.00
2018-11-28T07:42:58.063Z,24.40
2018-11-28T07:45:25.450Z,20.23
2018-11-28T07:47:52.888Z,23.70
2018-11-28T07:50:20.320Z,21.13
2018-11-28T07:52:47.764Z,22.33
2018-11-28T07:55:15.171Z,27.67
2018-11-28T07:57:42.613Z,25.03
2018-11-28T08:00:14.085Z,23.33
2018-11-28T08:02:41.978Z,22.33
2018-11-28T08:05:10.381Z,22.63
2018-11-28T08:07:37.904Z,23.10
2018-11-28T08:10:07.485Z,21.60
2018-11-28T08:12:34.925Z,20.63
2018-11-28T08:15:02.339Z,25.57
2018-11-28T08:17:30.052Z,32.10
2018-11-28T08:19:57.048Z,35.27
2018-11-28T08:22:24.392Z,39.73
2018-11-28T08:24:51.847Z,33.43
2018-11-28T08:27:19.200Z,33.47
2018-11-28T08:29:46.649Z,31.70
2018-11-28T08:32:14.167Z,32.70
2018-11-28T08:34:41.557Z,33.37
2018-11-28T08:37:08.966Z,32.07
2018-11-28T08:39:36.392Z,32.97
2018-11-28T08:42:03.770Z,34.60
2018-11-28T08:44:31.220Z,35.10
2018-11-28T08:46:58.659Z,31.97
2018-11-28T08:49:26.054Z,25.57
2018-11-28T08:51:53.422Z,26.73
2018-11-28T08:54:20.824Z,23.40
2018-11-28T08:56:48.192Z,24.00
2018-11-28T08:59:15.637Z,24.73
2018-11-28T09:01:43.091Z,22.63
2018-11-28T09:04:10.478Z,21.43
2018-11-28T09:06:37.889Z,22.20
2018-11-28T09:09:07.387Z,22.50
2018-11-28T09:11:34.763Z,23.87
2018-11-28T09:14:04.635Z,24.03
2018-11-28T09:16:29.560Z,27.07
2018-11-28T09:18:56.956Z,24.30
2018-11-28T09:21:24.362Z,24.60
2018-11-28T09:23:51.844Z,22.57
2018-11-28T09:26:18.725Z,21.57
2018-11-28T09:28:50.130Z,23.00
2018-11-28T09:31:17.601Z,23.60
2018-11-28T09:33:45.026Z,21.77
2018-11-28T09:36:12.466Z,22.80
2018-11-28T09:38:39.831Z,23.30
2018-11-28T09:41:07.346Z,23.60
2018-11-28T09:43:34.768Z,22.80
2018-11-28T09:46:02.119Z,23.30
2018-11-28T09:48:33.211Z,22.60
2018-11-28T09:51:00.663Z,22.00
2018-11-28T09:53:28.082Z,23.77
2018-11-28T09:55:55.491Z,21.80
2018-11-28T09:58:22.956Z,22.83
2018-11-28T10:00:50.369Z,20.40
2018-11-28T10:03:17.759Z,21.77
2018-11-28T10:05:45.116Z,21.47
2018-11-28T10:08:12.516Z,21.70
2018-11-28T10:10:39.970Z,20.03
2018-11-28T10:13:07.373Z,23.53
2018-11-28T10:15:35.713Z,21.13
2018-11-28T10:18:02.214Z,23.03
2018-11-28T10:20:29.636Z,22.50
2018-11-28T10:22:57.062Z,22.80
2018-11-28T10:25:25.324Z,23.77
2018-11-28T10:28:03.790Z,23.70
2018-11-28T10:30:32.875Z,21.20
2018-11-28T10:33:00.276Z,32.60
2018-11-28T10:35:27.728Z,24.33
2018-11-28T10:37:55.097Z,19.70
2018-11-28T10:40:23.125Z,19.40
2018-11-28T10:42:54.524Z,19.43
2018-11-28T10:45:23.132Z,19.50
2018-11-28T10:47:50.597Z,18.10
2018-11-28T10:50:18.119Z,18.60
2018-11-28T10:52:45.555Z,18.40
2018-11-28T10:55:14.875Z,19.00
2018-11-28T10:57:42.360Z,19.83
2018-11-28T11:00:22.165Z,22.27
2018-11-28T11:02:55.407Z,20.90
2018-11-28T11:05:28.603Z,19.47
2018-11-28T11:08:01.680Z,18.53
2018-11-28T11:10:34.822Z,16.80
2018-11-28T11:13:07.975Z,16.30
2018-11-28T11:15:35.644Z,15.83
2018-11-28T11:18:03.151Z,17.33
2018-11-28T11:20:30.598Z,16.10
2018-11-28T11:22:57.972Z,15.90
2018-11-28T11:25:25.315Z,16.17
2018-11-28T11:27:52.750Z,17.03
2018-11-28T11:30:20.142Z,15.17
2018-11-28T11:32:47.652Z,17.03
2018-11-28T11:35:15.068Z,16.90
2018-11-28T11:37:42.528Z,17.57
2018-11-28T11:40:12.483Z,19.53
2018-11-28T11:42:39.937Z,19.70
2018-11-28T11:45:11.702Z,20.37
2018-11-28T11:47:39.138Z,18.43
2018-11-28T11:50:12.941Z,18.73
2018-11-28T11:52:40.764Z,18.97
2018-11-28T11:55:09.674Z,18.03
2018-11-28T11:57:37.080Z,16.83
2018-11-28T12:00:10.092Z,15.13
2018-11-28T12:02:37.536Z,18.30
2018-11-28T12:05:07.067Z,14.40
2018-11-28T12:07:34.650Z,17.93
2018-11-28T12:10:09.059Z,19.03
2018-11-28T12:12:36.156Z,20.40
2018-11-28T12:15:04.392Z,23.40
2018-11-28T12:17:31.683Z,24.00
2018-11-28T12:19:59.111Z,17.87
2018-11-28T12:22:26.560Z,12.93
2018-11-28T12:24:53.948Z,12.50
2018-11-28T12:27:21.397Z,13.03
2018-11-28T12:29:48.736Z,10.80
2018-11-28T12:32:16.164Z,10.73
2018-11-28T12:34:43.608Z,11.53
2018-11-28T12:37:10.964Z,16.20
2018-11-28T12:39:38.419Z,14.13
2018-11-28T12:42:05.854Z,12.97
2018-11-28T12:44:33.273Z,15.33
2018-11-28T12:47:00.709Z,17.27
2018-11-28T12:49:28.121Z,14.57
2018-11-28T12:51:57.681Z,15.17
2018-11-28T12:54:25.072Z,16.27
2018-11-28T12:56:52.492Z,13.93
2018-11-28T12:59:19.839Z,11.97
2018-11-28T13:01:47.268Z,9.67
2018-11-28T13:04:14.682Z,13.17
2018-11-28T13:06:42.068Z,14.63
2018-11-28T13:09:09.480Z,14.53
2018-11-28T13:11:36.879Z,12.40
2018-11-28T13:14:04.683Z,18.13
2018-11-28T13:16:32.056Z,17.00
2018-11-28T13:18:59.469Z,16.70
2018-11-28T13:21:26.916Z,15.90
2018-11-28T13:23:54.265Z,14.63
2018-11-28T13:26:21.663Z,12.70
2018-11-28T13:28:49.077Z,14.60
2018-11-28T13:31:19.900Z,17.53
2018-11-28T13:33:47.291Z,15.30
2018-11-28T13:36:14.691Z,17.30
2018-11-28T13:38:42.130Z,24.00
2018-11-28T13:41:09.509Z,23.80
2018-11-28T13:43:36.909Z,12.97
2018-11-28T13:46:07.239Z,13.67
2018-11-28T13:48:31.856Z,16.40
2018-11-28T13:50:59.223Z,14.30
2018-11-28T13:53:26.560Z,15.20
2018-11-28T13:56:56.925Z,19.10
2018-11-28T13:58:23.624Z,12.60
2018-11-28T14:00:51.955Z,13.20
2018-11-28T14:03:19.365Z,17.30
2018-11-28T14:05:50.035Z,13.63
2018-11-28T14:08:17.467Z,15.50
2018-11-28T14:10:44.877Z,14.67
2018-11-28T14:13:12.380Z,14.87
2018-11-28T14:15:39.752Z,19.50
2018-11-28T14:18:13.735Z,15.60
2018-11-28T14:20:41.145Z,14.87
2018-11-28T14:23:08.532Z,16.10
2018-11-28T14:25:36.190Z,14.77
2018-11-28T14:28:03.650Z,15.70
2018-11-28T14:30:31.002Z,14.73
2018-11-28T14:32:58.424Z,15.50
2018-11-28T14:35:25.806Z,15.00
2018-11-28T14:37:53.164Z,13.47
2018-11-28T14:40:21.627Z,14.57
2018-11-28T14:42:50.274Z,15.60
2018-11-28T14:45:18.334Z,13.97
2018-11-28T14:47:46.179Z,14.00
2018-11-28T14:50:20.550Z,15.50
2018-11-28T14:52:48.015Z,15.13
2018-11-28T14:55:20.329Z,16.60
2018-11-28T14:57:47.728Z,14.77
2018-11-28T15:00:16.210Z,13.93
2018-11-28T15:02:43.996Z,14.27
2018-11-28T15:06:24.174Z,14.60
2018-11-28T15:08:52.004Z,13.67
2018-11-28T15:11:19.406Z,15.10
2018-11-28T15:13:46.793Z,17.83
2018-11-28T15:16:14.172Z,15.73
2018-11-28T15:18:41.595Z,15.90
2018-11-28T15:21:09.961Z,15.67
2018-11-28T15:23:37.923Z,15.23
2018-11-28T15:26:05.456Z,21.70
2018-11-28T15:28:32.877Z,19.23
2018-11-28T15:31:00.330Z,17.87
2018-11-28T15:33:27.722Z,18.87
2018-11-28T15:35:55.054Z,17.23
2018-11-28T15:38:22.414Z,17.77
2018-11-28T15:40:49.829Z,17.97
2018-11-28T15:43:17.184Z,17.73
2018-11-28T15:45:44.594Z,18.90
2018-11-28T15:48:11.977Z,19.50
2018-11-28T15:50:39.538Z,18.93
2018-11-28T15:53:06.966Z,17.47
2018-11-28T15:55:34.453Z,15.20
2018-11-28T15:58:01.862Z,15.47
2018-11-28T16:00:29.269Z,14.80
2018-11-28T16:02:56.688Z,14.80
2018-11-28T16:05:24.092Z,16.33
2018-11-28T16:07:51.668Z,15.80
2018-11-28T16:10:24.781Z,15.53
2018-11-28T16:12:52.274Z,15.03
2018-11-28T16:15:24.846Z,16.60
2018-11-28T16:17:52.232Z,17.37
2018-11-28T16:20:19.721Z,16.20
2018-11-28T16:22:47.194Z,17.47
2018-11-28T16:25:14.608Z,17.40
2018-11-28T16:27:42.058Z,17.53
2018-11-28T16:30:11.796Z,16.57
2018-11-28T16:32:39.508Z,16.10
2018-11-28T16:35:08.743Z,16.30
2018-11-28T16:37:36.091Z,16.10
2018-11-28T16:40:05.317Z,16.63
2018-11-28T16:42:32.713Z,15.80
2018-11-28T16:45:00.115Z,16.33
2018-11-28T16:47:27.456Z,17.33
2018-11-28T16:49:54.879Z,16.17
2018-11-28T16:52:22.215Z,17.40
2018-11-28T16:54:49.620Z,15.10
2018-11-28T16:57:17.046Z,16.13
2018-11-28T16:59:44.445Z,16.23
2018-11-28T17:02:11.800Z,16.73
2018-11-28T17:04:39.164Z,16.33
2018-11-28T17:07:06.556Z,14.63
2018-11-28T17:09:33.947Z,17.70
2018-11-28T17:12:01.478Z,16.17
2018-11-28T17:14:28.906Z,17.07
2018-11-28T17:16:56.379Z,15.20
2018-11-28T17:19:23.824Z,16.27
2018-11-28T17:21:51.200Z,16.23
2018-11-28T17:24:18.608Z,14.97
2018-11-28T17:26:46.042Z,14.63
2018-11-28T17:29:13.421Z,14.93
2018-11-28T17:31:40.868Z,15.23
2018-11-28T17:34:08.276Z,14.13
2018-11-28T17:36:35.677Z,15.73
2018-11-28T17:39:06.567Z,16.20
2018-11-28T17:41:34.059Z,16.07
2018-11-28T17:44:01.596Z,16.40
2018-11-28T17:46:28.957Z,15.57
2018-11-28T17:48:56.404Z,14.20
2018-11-28T17:51:23.785Z,16.27
2018-11-28T17:53:51.223Z,15.73
2018-11-28T17:56:18.591Z,16.60
2018-11-28T17:58:46.024Z,14.53
2018-11-28T18:01:13.455Z,14.87
2018-11-28T18:03:40.914Z,16.00
2018-11-28T18:06:08.251Z,15.70
2018-11-28T18:08:35.605Z,14.80
2018-11-28T18:11:09.220Z,15.13
2018-11-28T18:13:39.512Z,13.73
2018-11-28T18:16:04.552Z,14.80
2018-11-28T18:18:32.037Z,17.90
2018-11-28T18:20:59.434Z,19.50
2018-11-28T18:23:26.787Z,18.67
2018-11-28T18:25:54.268Z,17.10
2018-11-28T18:28:21.643Z,18.83
2018-11-28T18:30:49.079Z,16.00
2018-11-28T18:33:16.565Z,14.73
2018-11-28T18:35:43.964Z,16.70
2018-11-28T18:38:11.384Z,16.53
2018-11-28T18:40:38.860Z,18.53
2018-11-28T18:43:07.025Z,15.97
2018-11-28T18:45:36.481Z,14.30
2018-11-28T18:48:03.634Z,16.80
2018-11-28T18:50:31.090Z,15.23
2018-11-28T18:52:58.484Z,15.20
2018-11-28T18:55:25.912Z,19.17
2018-11-28T18:57:55.506Z,17.47
2018-11-28T19:00:23.784Z,18.30
2018-11-28T19:02:51.623Z,21.73
2018-11-28T19:05:19.074Z,23.23
2018-11-28T19:07:46.736Z,25.07
2018-11-28T19:10:17.115Z,21.90
2018-11-28T19:12:44.484Z,20.80
2018-11-28T19:15:14.096Z,20.43
2018-11-28T19:17:41.573Z,17.70
2018-11-28T19:20:13.040Z,16.00
2018-11-28T19:22:40.464Z,14.40
2018-11-28T19:25:10.173Z,16.10
2018-11-28T19:27:37.575Z,15.50
2018-11-28T19:30:10.912Z,15.37
2018-11-28T19:32:38.349Z,17.80
2018-11-28T19:35:06.938Z,16.20
2018-11-28T19:37:35.745Z,16.00
2018-11-28T19:40:04.846Z,17.13
2018-11-28T19:42:32.251Z,15.73
2018-11-28T19:44:59.684Z,17.00
2018-11-28T19:47:27.079Z,15.60
2018-11-28T19:49:54.586Z,14.93
2018-11-28T19:52:21.922Z,16.50
2018-11-28T19:54:49.362Z,22.10
2018-11-28T19:57:16.786Z,19.67
2018-11-28T19:59:44.195Z,17.93
2018-11-28T20:02:11.609Z,19.03
2018-11-28T20:04:39.061Z,22.07
2018-11-28T20:07:06.591Z,21.67
2018-11-28T20:09:33.964Z,18.93
2018-11-28T20:12:01.437Z,16.27
2018-11-28T20:14:28.860Z,18.27
2018-11-28T20:16:56.317Z,17.40
2018-11-28T20:19:23.698Z,18.57
2018-11-28T20:21:51.152Z,20.40
2018-11-28T20:24:18.500Z,19.53
2018-11-28T20:26:45.942Z,20.50
2018-11-28T20:29:13.373Z,22.17
2018-11-28T20:31:40.750Z,21.23
2018-11-28T20:34:08.126Z,18.80
2018-11-28T20:36:35.544Z,16.30
2018-11-28T20:39:03.568Z,15.93
2018-11-28T20:41:30.992Z,17.20
2018-11-28T20:43:58.418Z,15.70
2018-11-28T20:46:25.847Z,17.90
2018-11-28T20:48:53.300Z,17.20
2018-11-28T20:51:20.692Z,16.60
2018-11-28T20:53:48.014Z,16.47
2018-11-28T20:56:15.470Z,16.40
2018-11-28T20:58:42.933Z,17.77
2018-11-28T21:01:10.344Z,15.73
2018-11-28T21:03:37.766Z,18.20
2018-11-28T21:06:05.429Z,18.77
2018-11-28T21:08:32.763Z,19.57
2018-11-28T21:11:00.155Z,16.90
2018-11-28T21:13:27.554Z,18.27
2018-11-28T21:15:54.946Z,19.97
2018-11-28T21:18:22.312Z,17.03
2018-11-28T21:20:49.794Z,16.77
2018-11-28T21:23:18.314Z,15.97
2018-11-28T21:25:48.129Z,16.43
2018-11-28T21:28:15.538Z,16.70
2018-11-28T21:30:43.057Z,17.07
2018-11-28T21:33:11.804Z,19.60
2018-11-28T21:35:41.060Z,19.40
2018-11-28T21:38:08.590Z,18.23
2018-11-28T21:40:36.108Z,16.97
2018-11-28T21:43:03.491Z,16.90
2018-11-28T21:45:31.451Z,17.10
2018-11-28T21:47:58.807Z,18.60
2018-11-28T21:50:26.145Z,18.00
2018-11-28T21:52:53.516Z,18.83
2018-11-28T21:55:22.723Z,19.67
2018-11-28T21:57:50.247Z,19.00
2018-11-28T22:00:21.645Z,17.77
2018-11-28T22:02:49.102Z,18.73
2018-11-28T22:05:16.748Z,18.50
2018-11-28T22:07:44.255Z,19.40
2018-11-28T22:10:14.420Z,18.83
2018-11-28T22:12:41.986Z,17.73
2018-11-28T22:15:10.608Z,18.10
2018-11-28T22:17:38.885Z,17.23
2018-11-28T22:20:08.399Z,17.37
2018-11-28T22:22:35.812Z,18.70
2018-11-28T22:25:03.540Z,18.40
2018-11-28T22:27:30.944Z,18.40
2018-11-28T22:29:58.365Z,17.93
2018-11-28T22:32:26.657Z,17.30
2018-11-28T22:34:55.006Z,16.30
2018-11-28T22:37:22.353Z,16.53
2018-11-28T22:39:49.671Z,16.87
2018-11-28T22:42:17.074Z,16.70
2018-11-28T22:44:44.397Z,16.57
2018-11-28T22:47:11.791Z,16.50
2018-11-28T22:49:39.197Z,14.77
2018-11-28T22:52:06.622Z,16.33
2018-11-28T22:54:33.999Z,17.77
2018-11-28T22:57:01.355Z,18.40
2018-11-28T22:59:28.823Z,17.80
2018-11-28T23:04:04.836Z,17.87
2018-11-28T23:06:32.238Z,16.70
2018-11-28T23:08:59.618Z,18.20
2018-11-28T23:11:26.980Z,16.90
2018-11-28T23:13:54.435Z,15.53
2018-11-28T23:16:21.800Z,17.63
2018-11-28T23:18:49.170Z,16.97
2018-11-28T23:21:16.558Z,16.70
2018-11-28T23:23:43.939Z,16.43
2018-11-28T23:26:11.449Z,16.13
2018-11-28T23:28:38.810Z,16.30
2018-11-28T23:31:06.226Z,17.13
2018-11-28T23:33:33.598Z,17.20
2018-11-28T23:36:00.982Z,17.20
2018-11-28T23:38:28.338Z,18.33
2018-11-28T23:40:55.671Z,17.87
2018-11-28T23:43:23.037Z,17.17
2018-11-28T23:45:50.373Z,16.20
2018-11-28T23:48:17.771Z,16.67
2018-11-28T23:50:45.118Z,17.70
2018-11-28T23:53:12.934Z,17.33
2018-11-28T23:55:40.296Z,19.47
2018-11-28T23:58:08.224Z,19.60
